East Moriches, New York
Current Conditions -  °F | °C
As of 3:56 AM on Thursday 27 Nov 2014 (Local Time) from KHWV Reporting Station
Broken Clouds Broken Clouds  
Wind Chill: 28°   Ceiling: 9000
Heat Index: 35°   Visibility: 10mi
Dew Point: 32°   Wind: 9mph
Humidity: 89%   Direction: 310°NW
Pressure: 29.87"   Gusts: NA
Location:  40.81°N, 72.76°W
Report Text: KHWV 270856Z AUTO 31008KT 10SM SCT050 BKN090 02/00 A2987 RMK AO2 SLP114 60004 I3000 T00170000 51026 TSNO $
Loading
Personal Weather Stations






























Interactive Weather Map New forecast layout! Learn more

10-Day Weather Forecast

Advertisements
Track Severe Weather on mobile